Time;durP1;ratioP1;P1;durP2;ratioP2;P2;SDS_P1;SDS_P2;PMS_P1;PMS_P2;Temp;Humidity;BMP_temperature;BMP_pressure;BME280_temperature;BME280_humidity;BME280_pressure;Samples;Min_cycle;Max_cycle;Signal;HPM_P1;HPM_P2
2022/07/08 00:01:11;;;;;;;0.63;0.50;;;12.70;99.90;;;;;;5094052;28;20103;-74
2022/07/08 00:03:37;;;;;;;0.70;0.63;;;12.60;99.90;;;;;;5094465;28;20048;-75
2022/07/08 00:06:03;;;;;;;0.35;0.35;;;12.60;99.90;;;;;;5076584;28;20031;-76
2022/07/08 00:08:30;;;;;;;0.40;0.40;;;;;;;;;;5096485;28;20081;-75
2022/07/08 00:10:57;;;;;;;2.03;0.77;;;12.50;99.90;;;;;;5097956;28;20517;-75
2022/07/08 00:13:22;;;;;;;0.80;0.80;;;12.50;99.90;;;;;;5102777;28;20047;-74
2022/07/08 00:15:48;;;;;;;0.38;0.30;;;12.60;99.90;;;;;;5098644;28;20477;-74
2022/07/08 00:18:14;;;;;;;1.65;0.77;;;12.70;99.90;;;;;;5098503;28;20081;-74
2022/07/08 00:20:40;;;;;;;0.45;0.45;;;12.70;99.90;;;;;;5098457;28;20024;-75
2022/07/08 00:23:05;;;;;;;0.47;0.47;;;12.80;99.90;;;;;;5098107;28;20357;-75
2022/07/08 00:25:31;;;;;;;0.30;0.30;;;12.90;99.90;;;;;;5098115;28;20461;-75
2022/07/08 00:27:56;;;;;;;0.40;0.40;;;12.90;99.90;;;;;;5080061;28;20380;-75
2022/07/08 00:30:22;;;;;;;0.38;0.38;;;13.00;99.90;;;;;;5101874;28;20020;-75
2022/07/08 00:32:48;;;;;;;0.40;0.40;;;13.10;99.90;;;;;;5101472;28;20032;-75
2022/07/08 00:35:14;;;;;;;0.68;0.68;;;13.20;99.90;;;;;;5082945;28;20031;-74
2022/07/08 00:37:39;;;;;;;0.20;0.20;;;13.20;99.90;;;;;;5081326;28;20361;-75
2022/07/08 00:40:05;;;;;;;0.90;0.90;;;13.20;99.90;;;;;;5100212;28;20031;-74
2022/07/08 00:42:31;;;;;;;0.43;0.43;;;13.20;99.90;;;;;;5098625;28;20016;-75
2022/07/08 00:44:57;;;;;;;0.52;0.45;;;13.20;99.90;;;;;;5097404;28;20026;-75
2022/07/08 00:47:24;;;;;;;0.20;0.20;;;13.20;99.90;;;;;;5097905;28;20020;-75
2022/07/08 00:49:50;;;;;;;0.30;0.30;;;13.10;99.90;;;;;;5097218;28;20073;-75
2022/07/08 00:52:17;;;;;;;0.88;0.88;;;13.10;99.90;;;;;;5097785;28;20058;-75
2022/07/08 00:54:42;;;;;;;0.30;0.30;;;13.00;99.90;;;;;;5079664;28;20484;-75
2022/07/08 00:57:08;;;;;;;0.30;0.25;;;13.00;99.90;;;;;;5097491;28;20039;-75
2022/07/08 00:59:34;;;;;;;0.70;0.65;;;13.10;99.90;;;;;;5079376;28;20145;-75
2022/07/08 01:02:00;;;;;;;0.40;0.40;;;13.10;99.90;;;;;;5097812;28;20467;-75
2022/07/08 01:04:25;;;;;;;0.40;0.40;;;13.20;99.90;;;;;;5078973;28;20062;-75
2022/07/08 01:06:51;;;;;;;0.52;0.40;;;13.10;99.90;;;;;;5097464;28;20023;-74
2022/07/08 01:09:17;;;;;;;0.90;0.80;;;13.10;99.90;;;;;;5097336;28;20028;-75
2022/07/08 01:11:45;;;;;;;0.35;0.35;;;13.10;99.90;;;;;;5097327;28;20059;-74
2022/07/08 01:14:12;;;;;;;0.47;0.47;;;13.00;99.90;;;;;;5097222;28;20016;-75
2022/07/08 01:16:38;;;;;;;0.40;0.40;;;13.00;99.90;;;;;;5097110;28;20016;-74
2022/07/08 01:19:04;;;;;;;1.48;0.80;;;12.90;99.90;;;;;;5079011;28;20024;-74
2022/07/08 01:21:30;;;;;;;0.43;0.32;;;12.90;99.90;;;;;;5078881;28;20020;-75
2022/07/08 01:23:55;;;;;;;0.47;0.47;;;12.90;99.90;;;;;;5096770;28;20027;-75
2022/07/08 01:26:21;;;;;;;1.58;0.85;;;13.00;99.90;;;;;;5097366;28;20081;-75
2022/07/08 01:28:47;;;;;;;16.25;1.00;;;13.00;99.90;;;;;;5097117;28;20028;-74
2022/07/08 01:31:12;;;;;;;0.40;0.40;;;13.10;99.90;;;;;;5078458;28;20036;-74
2022/07/08 01:33:39;;;;;;;0.20;0.20;;;13.10;99.90;;;;;;5096399;28;20081;-75
2022/07/08 01:36:05;;;;;;;0.40;0.40;;;13.20;99.90;;;;;;5096221;28;20024;-75
2022/07/08 01:38:31;;;;;;;0.88;0.43;;;13.20;99.90;;;;;;5096159;28;20034;-74
2022/07/08 01:40:57;;;;;;;1.10;0.57;;;13.30;99.90;;;;;;5096389;28;20532;-75
2022/07/08 01:43:25;;;;;;;0.35;0.35;;;13.40;99.90;;;;;;5095834;28;20392;-75
2022/07/08 01:45:51;;;;;;;0.75;0.75;;;13.40;99.90;;;;;;5077651;28;20551;-75
2022/07/08 01:48:16;;;;;;;0.20;0.20;;;13.50;99.90;;;;;;5096335;28;20162;-75
2022/07/08 01:50:42;;;;;;;0.57;0.57;;;13.70;99.90;;;;;;5095425;28;20020;-75
2022/07/08 01:53:08;;;;;;;0.30;0.30;;;13.70;99.90;;;;;;5094980;28;20039;-74
2022/07/08 01:55:34;;;;;;;0.28;0.28;;;13.70;99.90;;;;;;5077053;28;20020;-74
2022/07/08 01:58:00;;;;;;;0.80;0.60;;;13.70;99.90;;;;;;5095171;28;20027;-74
2022/07/08 02:00:25;;;;;;;0.10;0.10;;;13.70;99.90;;;;;;5095093;28;20541;-75
2022/07/08 02:02:51;;;;;;;0.75;0.75;;;13.70;99.90;;;;;;5095134;28;20035;-75
2022/07/08 02:05:17;;;;;;;0.70;0.50;;;13.80;99.90;;;;;;5095950;28;20028;-75
2022/07/08 02:07:43;;;;;;;0.20;0.20;;;13.80;99.90;;;;;;5095696;28;20421;-75
2022/07/08 02:10:09;;;;;;;0.30;0.30;;;13.80;99.90;;;;;;5077809;28;20488;-75
2022/07/08 02:12:35;;;;;;;0.40;0.40;;;13.80;99.90;;;;;;5095690;28;20066;-75
2022/07/08 02:15:03;;;;;;;1.40;0.50;;;13.90;99.90;;;;;;5077583;28;20020;-75
2022/07/08 02:17:32;;;;;;;0.30;0.30;;;13.90;99.90;;;;;;5095816;28;20030;-75
2022/07/08 02:19:58;;;;;;;0.28;0.28;;;13.90;99.90;;;;;;5095951;28;20469;-75
2022/07/08 02:22:24;;;;;;;1.02;0.70;;;13.90;99.90;;;;;;5096264;28;20032;-75
2022/07/08 02:24:51;;;;;;;0.50;0.50;;;14.00;99.90;;;;;;5095585;28;20031;-75
2022/07/08 02:27:17;;;;;;;0.30;0.30;;;14.00;99.90;;;;;;5095386;28;20051;-75
2022/07/08 02:29:43;;;;;;;0.20;0.20;;;14.10;99.90;;;;;;5077756;28;20073;-75
2022/07/08 02:32:09;;;;;;;0.30;0.30;;;14.40;99.90;;;;;;5095399;28;20173;-75
2022/07/08 02:34:35;;;;;;;2.60;1.27;;;14.80;99.90;;;;;;5095436;28;20054;-75
2022/07/08 02:37:02;;;;;;;0.65;0.65;;;14.80;99.90;;;;;;5094929;28;20035;-75
2022/07/08 02:39:28;;;;;;;0.35;0.35;;;15.20;99.90;;;;;;5095441;28;20020;-75
2022/07/08 02:41:53;;;;;;;0.20;0.20;;;15.20;99.90;;;;;;5077362;28;20093;-75
2022/07/08 02:44:19;;;;;;;0.80;0.80;;;15.30;99.90;;;;;;5095289;28;20028;-76
2022/07/08 02:46:46;;;;;;;0.40;0.30;;;15.40;99.90;;;;;;5095300;28;20034;-75
2022/07/08 02:49:12;;;;;;;0.43;0.43;;;15.40;99.90;;;;;;5094754;28;20425;-76
2022/07/08 02:51:38;;;;;;;0.50;0.50;;;15.40;99.90;;;;;;5094923;28;20097;-75
2022/07/08 02:54:05;;;;;;;0.30;0.30;;;15.40;99.90;;;;;;5095238;28;20039;-75
2022/07/08 02:56:32;;;;;;;0.68;0.68;;;15.30;99.90;;;;;;5077022;28;20046;-75
2022/07/08 02:58:59;;;;;;;0.30;0.30;;;15.30;99.90;;;;;;5094957;28;20372;-74
2022/07/08 03:01:25;;;;;;;0.20;0.20;;;15.30;99.90;;;;;;5094717;28;20024;-75
2022/07/08 03:03:50;;;;;;;0.50;0.50;;;15.20;99.90;;;;;;5094799;28;20043;-75
2022/07/08 03:06:16;;;;;;;0.75;0.75;;;15.20;99.90;;;;;;5076210;28;20047;-74
2022/07/08 03:08:42;;;;;;;0.68;0.68;;;15.10;99.90;;;;;;5076391;28;20586;-74
2022/07/08 03:11:08;;;;;;;1.13;1.08;;;15.00;99.90;;;;;;5094566;28;20530;-75
2022/07/08 03:13:37;;;;;;;0.68;0.68;;;15.00;99.90;;;;;;5076489;28;20032;-75
2022/07/08 03:16:03;;;;;;;0.32;0.30;;;14.90;99.90;;;;;;5094704;28;20537;-74
2022/07/08 03:18:31;;;;;;;0.38;0.35;;;14.90;99.90;;;;;;5076391;28;20055;-75
2022/07/08 03:20:56;;;;;;;0.20;0.20;;;14.80;99.90;;;;;;5076386;28;20114;-76
2022/07/08 03:23:22;;;;;;;0.30;0.30;;;14.80;99.90;;;;;;5094630;28;20443;-74
2022/07/08 03:25:48;;;;;;;21.52;0.88;;;14.70;99.90;;;;;;5076428;28;20024;-75
2022/07/08 03:28:14;;;;;;;0.20;0.20;;;14.70;99.90;;;;;;5094729;28;20024;-75
2022/07/08 03:30:40;;;;;;;0.10;0.10;;;14.50;99.90;;;;;;5094504;28;20381;-74
2022/07/08 03:33:06;;;;;;;0.30;0.30;;;14.50;99.90;;;;;;5094132;28;20035;-75
2022/07/08 03:35:31;;;;;;;0.52;0.52;;;14.30;99.90;;;;;;5076296;28;20465;-75
2022/07/08 03:37:57;;;;;;;0.50;0.50;;;14.20;99.90;;;;;;5094052;28;20099;-75
2022/07/08 03:43:07;;;;;;;0.60;0.60;;;14.10;99.90;;;;;;5097041;28;20049;-74
2022/07/08 03:45:33;;;;;;;0.32;0.32;;;14.00;99.90;;;;;;5096722;28;20056;-75
2022/07/08 03:48:00;;;;;;;0.45;0.45;;;14.00;99.90;;;;;;5094185;28;20043;-75
2022/07/08 03:50:26;;;;;;;0.43;0.43;;;13.90;99.90;;;;;;5094016;28;20503;-74
2022/07/08 03:52:52;;;;;;;0.30;0.30;;;13.90;99.90;;;;;;5093839;28;20054;-75
2022/07/08 03:55:21;;;;;;;0.85;0.30;;;13.90;99.90;;;;;;5093871;28;20464;-75
2022/07/08 03:57:47;;;;;;;0.80;0.68;;;13.80;99.90;;;;;;5075849;28;20160;-74
2022/07/08 04:00:13;;;;;;;0.52;0.52;;;13.80;99.90;;;;;;5094228;28;20501;-74
2022/07/08 04:02:39;;;;;;;0.52;0.52;;;13.70;99.90;;;;;;5093706;28;20016;-75
2022/07/08 04:05:05;;;;;;;0.82;0.73;;;13.70;99.90;;;;;;5093883;28;20045;-75
2022/07/08 04:07:33;;;;;;;0.40;0.40;;;13.70;99.90;;;;;;5093946;28;20025;-74
2022/07/08 04:09:58;;;;;;;0.20;0.20;;;13.60;99.90;;;;;;5093805;28;20024;-74
2022/07/08 04:12:24;;;;;;;1.20;0.43;;;13.70;99.90;;;;;;5093518;28;20108;-74
2022/07/08 04:14:50;;;;;;;0.50;0.50;;;13.70;99.90;;;;;;5093588;28;20047;-75
2022/07/08 04:17:15;;;;;;;0.30;0.30;;;13.80;99.90;;;;;;5093410;28;20078;-74
2022/07/08 04:19:41;;;;;;;0.52;0.52;;;13.80;99.90;;;;;;5093669;28;20027;-75
2022/07/08 04:22:07;;;;;;;0.85;0.40;;;13.80;99.90;;;;;;5093628;28;20036;-75
2022/07/08 04:24:32;;;;;;;1.08;0.30;;;13.70;99.90;;;;;;5094033;28;20031;-74
2022/07/08 04:26:58;;;;;;;0.65;0.65;;;13.70;99.90;;;;;;5093520;28;20016;-75
2022/07/08 04:29:23;;;;;;;2.38;0.30;;;13.70;99.90;;;;;;5093726;28;20032;-74
2022/07/08 04:31:49;;;;;;;0.30;0.30;;;13.70;99.90;;;;;;5093541;28;20081;-74
2022/07/08 04:34:15;;;;;;;0.80;0.40;;;13.70;99.90;;;;;;5095869;28;20020;-74
2022/07/08 04:36:41;;;;;;;0.40;0.40;;;13.70;99.90;;;;;;5097317;28;20380;-75
2022/07/08 04:39:06;;;;;;;0.30;0.30;;;13.70;99.90;;;;;;5078056;28;20025;-74
2022/07/08 04:41:32;;;;;;;0.85;0.30;;;13.80;99.90;;;;;;5097879;28;20024;-74
2022/07/08 04:43:58;;;;;;;0.70;0.35;;;13.80;99.90;;;;;;5097583;28;20424;-74
2022/07/08 04:46:23;;;;;;;0.50;0.50;;;13.80;99.90;;;;;;5096498;28;20024;-74
2022/07/08 04:48:49;;;;;;;0.52;0.52;;;14.00;99.90;;;;;;5097106;28;20024;-75
2022/07/08 04:51:15;;;;;;;0.28;0.28;;;14.00;99.90;;;;;;5078174;28;20510;-74
2022/07/08 04:53:41;;;;;;;0.52;0.30;;;14.20;99.90;;;;;;5096413;28;20081;-74
2022/07/08 04:56:06;;;;;;;3.05;0.47;;;14.30;99.90;;;;;;5096307;28;20025;-74
2022/07/08 04:58:32;;;;;;;0.30;0.30;;;14.50;99.90;;;;;;5096809;28;20431;-75
2022/07/08 05:00:58;;;;;;;0.20;0.20;;;14.70;99.90;;;;;;5099526;28;20095;-74
2022/07/08 05:03:24;;;;;;;0.30;0.30;;;14.40;99.90;;;;;;5098786;28;20043;-74
2022/07/08 05:05:49;;;;;;;0.63;0.40;;;14.40;99.90;;;;;;5079674;28;20388;-74
2022/07/08 05:08:15;;;;;;;0.32;0.32;;;14.30;99.90;;;;;;5097635;28;20020;-75
2022/07/08 05:10:41;;;;;;;0.50;0.50;;;14.20;99.90;;;;;;5097095;28;20024;-74
2022/07/08 05:13:07;;;;;;;0.50;0.38;;;14.10;99.90;;;;;;5080029;28;20092;-74
2022/07/08 05:15:33;;;;;;;0.65;0.65;;;14.10;99.90;;;;;;5079946;28;20020;-74
2022/07/08 05:17:59;;;;;;;0.77;0.77;;;14.10;99.90;;;;;;5097703;28;20053;-74
2022/07/08 05:20:25;;;;;;;0.20;0.20;;;14.00;99.90;;;;;;5079649;28;20027;-74
2022/07/08 05:22:51;;;;;;;0.20;0.20;;;14.00;99.90;;;;;;5097482;28;20384;-74
2022/07/08 05:25:16;;;;;;;0.38;0.38;;;14.00;99.90;;;;;;5097322;28;20034;-74
2022/07/08 05:27:42;;;;;;;1.08;0.57;;;14.10;99.90;;;;;;5097245;28;20099;-74
2022/07/08 05:30:10;;;;;;;0.70;0.40;;;14.10;99.90;;;;;;5079115;28;20112;-75
2022/07/08 05:32:36;;;;;;;2.30;0.30;;;14.20;99.90;;;;;;5097426;28;20036;-75
2022/07/08 05:35:04;;;;;;;3.30;0.40;;;14.20;99.90;;;;;;5096977;28;20048;-75
2022/07/08 05:37:31;;;;;;;1.50;1.38;;;14.10;99.90;;;;;;5078847;28;20020;-74
2022/07/08 05:39:57;;;;;;;0.52;0.52;;;14.20;99.90;;;;;;5096438;28;20016;-74
2022/07/08 05:42:23;;;;;;;0.30;0.30;;;14.20;99.90;;;;;;5096522;28;20020;-74
2022/07/08 05:44:48;;;;;;;1.55;1.00;;;14.20;99.90;;;;;;5096199;28;20382;-75
2022/07/08 05:47:14;;;;;;;11.07;1.40;;;14.30;99.90;;;;;;5078141;28;20024;-74
2022/07/08 05:49:43;;;;;;;0.82;0.82;;;;;;;;;;5096475;28;20469;-75
2022/07/08 05:52:09;;;;;;;0.60;0.60;;;14.30;99.90;;;;;;5095960;28;20039;-74
2022/07/08 05:54:35;;;;;;;0.52;0.52;;;14.30;99.90;;;;;;5079113;28;20042;-75
2022/07/08 05:57:01;;;;;;;0.60;0.60;;;14.40;99.90;;;;;;5096660;28;20024;-75
2022/07/08 05:59:28;;;;;;;2.28;1.02;;;14.40;99.90;;;;;;5096096;28;20012;-74
2022/07/08 06:01:55;;;;;;;0.35;0.35;;;14.40;99.90;;;;;;5096605;28;20020;-75
2022/07/08 06:04:21;;;;;;;2.25;0.50;;;14.50;99.90;;;;;;5078022;28;20020;-75
2022/07/08 06:06:47;;;;;;;0.85;0.82;;;14.50;99.90;;;;;;5095968;28;20365;-75
2022/07/08 06:09:13;;;;;;;0.47;0.47;;;14.60;99.90;;;;;;5095646;28;20411;-75
2022/07/08 06:11:38;;;;;;;1.77;1.17;;;14.70;99.90;;;;;;5096055;28;20024;-75
2022/07/08 06:14:04;;;;;;;0.40;0.40;;;14.80;99.90;;;;;;5078179;28;20384;-75
2022/07/08 06:16:30;;;;;;;0.63;0.52;;;14.90;99.90;;;;;;5095653;28;20023;-75
2022/07/08 06:18:56;;;;;;;0.50;0.50;;;14.90;99.90;;;;;;5095918;28;20021;-75
2022/07/08 06:21:21;;;;;;;1.73;1.60;;;14.90;99.90;;;;;;5095853;28;20024;-75
2022/07/08 06:23:47;;;;;;;3.08;2.25;;;15.00;99.90;;;;;;5096149;28;20463;-75
2022/07/08 06:26:13;;;;;;;0.30;0.30;;;15.20;99.90;;;;;;5096124;28;20050;-75
2022/07/08 06:28:39;;;;;;;2.05;1.27;;;15.30;99.90;;;;;;5095862;28;20361;-75
2022/07/08 06:31:05;;;;;;;3.70;0.95;;;15.30;99.90;;;;;;5096487;28;20031;-75
2022/07/08 06:33:31;;;;;;;0.45;0.45;;;15.30;99.90;;;;;;5096348;28;20070;-74
2022/07/08 06:35:56;;;;;;;4.20;0.70;;;15.30;99.90;;;;;;5078486;28;20024;-75
2022/07/08 06:38:22;;;;;;;11.15;3.05;;;15.30;99.90;;;;;;5096403;28;20099;-75
2022/07/08 06:40:48;;;;;;;0.60;0.60;;;15.30;99.90;;;;;;5096444;28;20024;-75
2022/07/08 06:43:13;;;;;;;0.70;0.70;;;15.60;99.90;;;;;;5096364;28;20024;-74
2022/07/08 06:45:39;;;;;;;0.30;0.30;;;16.50;99.90;;;;;;5078432;28;20043;-75
2022/07/08 06:48:05;;;;;;;1.88;1.05;;;17.60;99.90;;;;;;5097211;28;20409;-75
2022/07/08 06:50:31;;;;;;;0.50;0.50;;;18.60;99.90;;;;;;5096119;28;20099;-75
2022/07/08 06:52:57;;;;;;;1.10;0.32;;;19.60;99.90;;;;;;5093852;28;20555;-75
2022/07/08 06:55:22;;;;;;;2.25;0.32;;;20.40;99.90;;;;;;5076286;28;20016;-75
2022/07/08 06:57:48;;;;;;;7.95;0.55;;;20.50;96.40;;;;;;5099533;28;20043;-75
2022/07/08 07:00:15;;;;;;;0.80;0.50;;;;;;;;;;5095516;28;20046;-76
2022/07/08 07:02:41;;;;;;;0.55;0.55;;;20.70;94.20;;;;;;5076865;28;20032;-75
2022/07/08 07:05:07;;;;;;;0.40;0.30;;;21.10;94.70;;;;;;5093957;28;20020;-76
2022/07/08 07:07:33;;;;;;;0.75;0.73;;;22.20;83.10;;;;;;5094111;28;20032;-76
2022/07/08 07:09:59;;;;;;;1.52;0.88;;;21.00;88.90;;;;;;5093862;28;20017;-75
2022/07/08 07:12:25;;;;;;;0.60;0.60;;;20.70;93.50;;;;;;5094806;28;20102;-76
2022/07/08 07:14:51;;;;;;;2.25;0.65;;;;;;;;;;5096295;28;20016;-79
2022/07/08 07:17:21;;;;;;;0.55;0.55;;;21.50;86.40;;;;;;5075544;28;20419;-79
2022/07/08 07:19:47;;;;;;;5.82;0.55;;;21.90;80.00;;;;;;5093559;28;20023;-78
2022/07/08 07:22:14;;;;;;;1.10;0.88;;;21.90;79.50;;;;;;5093866;28;20028;-78
2022/07/08 07:24:40;;;;;;;0.75;0.38;;;21.60;80.90;;;;;;5080252;28;20016;-79
2022/07/08 07:27:06;;;;;;;2.45;1.35;;;21.60;82.10;;;;;;5099606;28;20024;-80
2022/07/08 07:29:32;;;;;;;0.40;0.40;;;21.80;77.20;;;;;;5080604;28;20028;-80
2022/07/08 07:31:58;;;;;;;0.65;0.40;;;21.80;85.40;;;;;;5097390;28;20035;-79
2022/07/08 07:34:24;;;;;;;5.88;0.63;;;22.70;76.40;;;;;;5078485;28;20362;-76
2022/07/08 07:36:50;;;;;;;0.35;0.35;;;22.90;75.90;;;;;;5093504;28;20023;-78
2022/07/08 07:39:15;;;;;;;0.68;0.68;;;23.10;68.60;;;;;;5096634;28;20020;-76
2022/07/08 07:41:41;;;;;;;1.35;0.47;;;22.70;68.40;;;;;;5079914;28;20024;-78
2022/07/08 07:44:07;;;;;;;1.05;0.95;;;22.70;69.30;;;;;;5098855;28;20480;-77
2022/07/08 07:46:33;;;;;;;0.55;0.40;;;22.50;69.10;;;;;;5077344;28;20016;-77
2022/07/08 07:48:59;;;;;;;1.73;0.75;;;22.50;69.00;;;;;;5096216;28;20379;-77
2022/07/08 07:51:24;;;;;;;0.35;0.35;;;22.40;68.80;;;;;;5100389;28;20044;-78
2022/07/08 07:53:50;;;;;;;0.38;0.38;;;21.70;73.20;;;;;;5102867;28;20411;-77
2022/07/08 07:56:16;;;;;;;0.80;0.80;;;21.30;80.90;;;;;;5105771;28;20016;-76
2022/07/08 07:58:42;;;;;;;0.80;0.80;;;21.50;81.80;;;;;;5087118;28;20066;-75
2022/07/08 08:01:08;;;;;;;0.20;0.20;;;21.90;74.20;;;;;;5104607;28;20047;-76
2022/07/08 08:03:34;;;;;;;0.35;0.30;;;22.60;71.20;;;;;;5084098;28;20208;-75
2022/07/08 08:06:00;;;;;;;0.40;0.40;;;22.60;71.70;;;;;;5102504;28;20312;-75
2022/07/08 08:08:26;;;;;;;0.90;0.50;;;22.30;67.60;;;;;;5101817;28;20027;-76
2022/07/08 08:10:53;;;;;;;0.47;0.47;;;22.50;68.60;;;;;;5102734;28;20035;-76
2022/07/08 08:13:19;;;;;;;1.45;1.35;;;22.70;66.30;;;;;;5099085;28;20032;-76
2022/07/08 08:15:45;;;;;;;0.57;0.55;;;22.80;69.60;;;;;;5098183;28;20016;-75
2022/07/08 08:18:11;;;;;;;6.15;0.75;;;23.00;69.40;;;;;;5095374;28;20032;-75
2022/07/08 08:20:37;;;;;;;0.80;0.80;;;22.90;66.10;;;;;;5101536;28;20044;-76
2022/07/08 08:23:04;;;;;;;1.88;1.45;;;22.80;66.60;;;;;;5076071;28;20036;-72
2022/07/08 08:25:30;;;;;;;1.55;0.35;;;23.70;65.70;;;;;;5074631;28;20111;-74
2022/07/08 08:27:56;;;;;;;0.68;0.60;;;22.30;67.50;;;;;;5095043;28;20047;-75
2022/07/08 08:30:22;;;;;;;0.70;0.70;;;22.30;70.10;;;;;;5077757;28;20021;-75
2022/07/08 08:32:48;;;;;;;0.47;0.40;;;22.10;70.40;;;;;;5082216;28;20032;-75
2022/07/08 08:35:15;;;;;;;5.07;0.40;;;21.30;77.40;;;;;;5103376;28;20031;-75
2022/07/08 08:37:40;;;;;;;1.85;1.08;;;21.60;75.30;;;;;;5106596;28;20031;-76
2022/07/08 08:40:09;;;;;;;0.88;0.47;;;22.20;76.30;;;;;;5104814;28;20016;-75
2022/07/08 08:42:35;;;;;;;1.50;0.38;;;22.10;72.20;;;;;;5103748;28;20028;-75
2022/07/08 08:45:03;;;;;;;1.10;0.82;;;22.00;71.40;;;;;;5099663;28;20372;-75
2022/07/08 08:47:30;;;;;;;0.55;0.40;;;22.40;79.30;;;;;;5100573;28;20026;-75
2022/07/08 08:50:53;;;;;;;7.38;0.47;;;23.10;70.30;;;;;;5100009;28;20369;-75
2022/07/08 08:52:54;;;;;;;2.20;0.88;;;23.00;68.70;;;;;;5100837;28;20052;-75
2022/07/08 08:55:30;;;;;;;0.57;0.57;;;22.90;67.90;;;;;;5107256;28;20018;-75
2022/07/08 08:57:58;;;;;;;0.40;0.40;;;23.40;68.10;;;;;;5082371;28;20027;-75
2022/07/08 09:00:25;;;;;;;0.85;0.25;;;23.00;66.70;;;;;;5089867;28;20078;-75
2022/07/08 09:02:52;;;;;;;0.25;0.20;;;22.30;69.60;;;;;;5082344;28;20028;-75
2022/07/08 09:05:18;;;;;;;0.82;0.40;;;22.00;70.80;;;;;;5099057;28;20039;-75
2022/07/08 09:07:44;;;;;;;0.20;0.20;;;22.10;71.20;;;;;;5098651;28;20047;-74
2022/07/08 09:10:11;;;;;;;0.80;0.77;;;22.20;70.10;;;;;;5099318;28;20031;-77
2022/07/08 09:12:37;;;;;;;0.20;0.20;;;22.50;68.90;;;;;;5099124;28;20032;-75
2022/07/08 09:15:04;;;;;;;1.83;0.38;;;22.60;73.30;;;;;;5087162;28;20039;-76
2022/07/08 09:17:30;;;;;;;4.30;0.60;;;23.00;71.30;;;;;;5087488;28;20220;-77
2022/07/08 09:19:55;;;;;;;0.30;0.30;;;22.80;69.70;;;;;;5080376;28;20024;-75
2022/07/08 09:22:22;;;;;;;2.00;1.10;;;22.30;70.90;;;;;;5078930;28;20046;-75
2022/07/08 09:24:48;;;;;;;2.10;0.57;;;22.30;73.00;;;;;;5079273;28;20035;-75
2022/07/08 09:27:14;;;;;;;1.45;1.35;;;22.10;73.10;;;;;;5078691;28;20028;-78
2022/07/08 09:29:56;;;;;;;1.17;0.43;;;22.30;76.10;;;;;;5078737;28;20023;-76
2022/07/08 09:32:21;;;;;;;3.03;0.65;;;22.20;71.80;;;;;;5097304;28;20045;-76
2022/07/08 09:34:47;;;;;;;0.47;0.47;;;22.30;73.20;;;;;;5078716;28;20107;-77
2022/07/08 09:37:16;;;;;;;2.50;1.05;;;22.40;80.30;;;;;;5078890;28;20027;-77
2022/07/08 09:39:43;;;;;;;1.15;0.28;;;22.40;74.40;;;;;;5099065;28;20020;-77
2022/07/08 09:42:10;;;;;;;0.40;0.40;;;22.60;73.00;;;;;;5096797;28;20035;-76
2022/07/08 09:44:37;;;;;;;0.20;0.20;;;21.90;71.30;;;;;;5078966;28;20357;-75
2022/07/08 09:47:14;;;;;;;0.32;0.32;;;21.80;71.90;;;;;;5088458;28;20026;-75
2022/07/08 09:49:48;;;;;;;2.08;0.50;;;22.10;74.70;;;;;;5101207;28;20365;-76
2022/07/08 09:52:22;;;;;;;0.30;0.30;;;22.50;72.40;;;;;;5096714;28;20442;-75
2022/07/08 09:55:04;;;;;;;4.03;0.85;;;22.60;69.00;;;;;;5095367;28;20529;-76
2022/07/08 09:57:31;;;;;;;0.68;0.55;;;22.90;67.60;;;;;;5098977;28;20044;-77
2022/07/08 09:59:57;;;;;;;0.55;0.55;;;22.90;68.40;;;;;;5099688;28;20019;-76
2022/07/08 10:02:24;;;;;;;0.40;0.40;;;23.00;69.80;;;;;;5097507;28;20376;-75
2022/07/08 10:04:52;;;;;;;0.45;0.20;;;23.50;65.10;;;;;;5081446;28;20030;-74
2022/07/08 10:07:18;;;;;;;0.20;0.20;;;24.00;63.40;;;;;;5097123;28;20472;-77
2022/07/08 10:09:43;;;;;;;0.30;0.30;;;24.20;61.70;;;;;;5080639;28;20055;-76
2022/07/08 10:12:14;;;;;;;1.27;0.52;;;24.30;62.20;;;;;;5098251;28;20038;-73
2022/07/08 10:14:46;;;;;;;0.20;0.20;;;24.30;62.80;;;;;;5076988;28;20020;-76
2022/07/08 10:17:16;;;;;;;0.63;0.63;;;23.80;62.70;;;;;;5077597;28;20063;-75
2022/07/08 10:19:43;;;;;;;0.57;0.55;;;23.10;61.40;;;;;;5101182;28;20020;-75
2022/07/08 10:22:10;;;;;;;0.25;0.25;;;22.80;64.10;;;;;;5097795;28;20365;-75
2022/07/08 10:24:41;;;;;;;0.40;0.40;;;22.80;65.70;;;;;;5076571;28;20031;-75
2022/07/08 10:27:09;;;;;;;0.10;0.10;;;22.80;63.30;;;;;;5094977;28;20020;-74
2022/07/08 10:29:39;;;;;;;0.45;0.45;;;23.10;64.80;;;;;;5076444;28;20032;-75
2022/07/08 10:32:24;;;;;;;0.22;0.20;;;23.60;61.70;;;;;;5094455;28;20039;-76
2022/07/08 10:35:12;;;;;;;0.22;0.22;;;23.60;64.60;;;;;;5077091;28;20083;-72
2022/07/08 10:37:56;;;;;;;0.20;0.20;;;23.90;59.70;;;;;;5094355;28;20575;-76
2022/07/08 10:40:43;;;;;;;0.30;0.30;;;24.10;58.10;;;;;;5095518;28;20039;-74
2022/07/08 10:43:22;;;;;;;0.20;0.20;;;24.40;57.70;;;;;;5094517;28;20042;-75
2022/07/08 10:46:17;;;;;;;0.33;0.33;;;24.50;62.70;;;;;;5076237;28;20024;-74
2022/07/08 10:48:47;;;;;;;3.08;1.15;;;24.30;58.20;;;;;;5092389;28;20313;-76
2022/07/08 10:51:23;;;;;;;3.28;0.30;;;24.20;58.80;;;;;;5093921;28;20047;-75
2022/07/08 10:53:57;;;;;;;0.28;0.28;;;24.20;61.00;;;;;;5093986;28;20153;-75
2022/07/08 10:56:48;;;;;;;0.35;0.35;;;24.30;59.80;;;;;;5093371;28;20052;-74
2022/07/08 10:59:19;;;;;;;0.60;0.32;;;24.10;60.20;;;;;;5095046;28;20567;-74
2022/07/08 11:02:00;;;;;;;0.52;0.20;;;23.80;59.20;;;;;;5076177;28;20028;-74
2022/07/08 11:04:35;;;;;;;2.83;0.50;;;24.00;61.70;;;;;;5094028;28;20020;-75
2022/07/08 11:07:28;;;;;;;0.30;0.30;;;23.80;61.40;;;;;;5093977;28;20016;-74
2022/07/08 11:10:04;;;;;;;0.28;0.28;;;23.80;60.60;;;;;;5076190;28;20369;-74
2022/07/08 11:12:33;;;;;;;2.30;1.02;;;23.70;58.70;;;;;;5093599;28;20036;-74
2022/07/08 11:15:00;;;;;;;1.40;0.33;;;23.70;59.30;;;;;;5075753;28;20028;-75
2022/07/08 11:17:32;;;;;;;1.65;0.20;;;24.00;60.40;;;;;;5075649;28;20027;-76
2022/07/08 11:19:59;;;;;;;0.40;0.40;;;24.30;60.40;;;;;;5093593;28;20431;-75
2022/07/08 11:22:26;;;;;;;0.47;0.32;;;24.30;61.00;;;;;;5075241;28;20024;-73
2022/07/08 11:24:54;;;;;;;0.10;0.10;;;24.60;57.30;;;;;;5093692;28;20078;-75
2022/07/08 11:27:28;;;;;;;10.10;1.58;;;25.10;56.20;;;;;;5093273;28;20012;-72
2022/07/08 11:29:55;;;;;;;1.45;0.85;;;25.60;58.00;;;;;;5093341;28;20024;-73
2022/07/08 11:32:23;;;;;;;5.93;1.20;;;25.30;56.60;;;;;;5093362;28;20024;-75
2022/07/08 11:34:49;;;;;;;0.28;0.25;;;25.10;57.70;;;;;;5075267;28;20101;-75
2022/07/08 11:37:15;;;;;;;0.10;0.10;;;25.50;56.70;;;;;;5093341;28;20077;-73
2022/07/08 11:39:45;;;;;;;2.00;0.68;;;25.60;57.60;;;;;;5077828;28;20028;-79
2022/07/08 11:42:17;;;;;;;0.30;0.30;;;26.20;55.90;;;;;;5079557;28;20371;-76
2022/07/08 11:44:44;;;;;;;0.25;0.25;;;26.40;53.90;;;;;;5101335;28;20069;-75
2022/07/08 11:47:15;;;;;;;1.95;0.40;;;25.80;55.20;;;;;;5097209;28;20024;-76
2022/07/08 11:49:46;;;;;;;0.17;0.17;;;25.40;55.10;;;;;;5080881;28;20020;-76
2022/07/08 11:52:16;;;;;;;0.40;0.40;;;25.20;55.40;;;;;;5081797;28;20082;-76
2022/07/08 11:54:45;;;;;;;0.20;0.20;;;25.70;60.40;;;;;;5096951;28;20020;-75
2022/07/08 11:57:11;;;;;;;;;;;26.00;56.70;;;;;;5097025;28;20020;-75
2022/07/08 11:59:37;;;;;;;1.75;1.05;;;26.40;58.20;;;;;;5077397;28;19971;-76
2022/07/08 12:02:04;;;;;;;0.28;0.28;;;26.30;56.80;;;;;;5102600;28;20020;-76
2022/07/08 12:04:30;;;;;;;0.60;0.60;;;26.30;54.70;;;;;;5082390;28;20521;-76
2022/07/08 12:06:59;;;;;;;0.30;0.30;;;26.00;55.70;;;;;;5102204;28;20058;-75
2022/07/08 12:09:27;;;;;;;5.13;0.40;;;26.70;53.70;;;;;;5102428;28;20512;-78
2022/07/08 12:11:55;;;;;;;0.65;0.65;;;26.80;53.10;;;;;;5086045;28;20196;-78
2022/07/08 12:14:22;;;;;;;0.30;0.30;;;27.00;54.50;;;;;;5106168;28;20027;-72
2022/07/08 12:16:49;;;;;;;0.10;0.10;;;27.30;52.70;;;;;;5106851;28;20337;-72
2022/07/08 12:19:34;;;;;;;0.50;0.28;;;26.80;53.60;;;;;;5105564;28;20031;-73
2022/07/08 12:22:02;;;;;;;0.50;0.40;;;26.70;53.10;;;;;;5106396;28;20027;-74
2022/07/08 12:24:35;;;;;;;0.25;0.20;;;26.70;53.80;;;;;;5102035;28;20024;-74
2022/07/08 12:27:04;;;;;;;1.45;0.50;;;27.10;52.80;;;;;;5078917;28;20054;-78
2022/07/08 12:29:37;;;;;;;;;;;27.00;51.80;;;;;;5097471;28;20099;-80
2022/07/08 12:32:07;;;;;;;1.38;0.30;;;27.20;53.30;;;;;;5096933;28;20033;-78
2022/07/08 12:34:33;;;;;;;0.32;0.32;;;27.80;51.70;;;;;;5096989;28;20084;-79
2022/07/08 12:37:17;;;;;;;0.30;0.25;;;27.30;50.40;;;;;;5078690;28;20122;-79
2022/07/08 12:39:43;;;;;;;2.65;0.68;;;26.90;51.80;;;;;;5096998;28;20012;-74
2022/07/08 12:42:08;;;;;;;2.30;0.30;;;26.50;52.60;;;;;;5096595;28;20017;-76
2022/07/08 12:44:39;;;;;;;0.20;0.20;;;26.10;53.40;;;;;;5078383;28;20167;-78
2022/07/08 12:47:12;;;;;;;1.90;0.28;;;25.90;53.90;;;;;;5096720;28;20024;-79
2022/07/08 12:49:40;;;;;;;0.10;0.10;;;26.40;55.70;;;;;;5096665;28;20217;-79
2022/07/08 12:52:08;;;;;;;0.40;0.40;;;27.20;52.00;;;;;;5096464;28;20063;-75